x

Olcott Harbor, Ny (olcn6) Weather Station

7:50am - Sat 29th Apr 2017 All times are CDT. -5 hours from GMT.

  • Wind
    8mph, 11mph gusts
  • Air Temp 46°f
  • Sea Pressure 1020mb
  • Olcott Harbor, Ny
  • Olcott Harbor, Ny

More Historic Weather Station data

Upgrade to MSW Pro to gain access to the past 30 days of data for over 8000 Wavebouys and Weather Stations around the globe.

Join Pro

Comparision Forecast

View Surf forecast
   
Sat 04/29 7:50am 8 11 mph 1020mb 46f
7:40am 8 10 mph 1020mb 46f
7:30am 7 9 mph 1019.6mb 46f
7:20am 7 8 mph 1019.3mb 46f
7:10am 6 9 mph 1019mb 46f
7:00am 8 11 mph 1019mb 46f
6:50am 9 13 mph 1019mb 46f
6:40am 9 13 mph 1018.6mb 46f
6:30am 11 15 mph 1018.3mb 46f
6:20am 11 16 mph 1018.3mb 47f
6:10am 13 14 mph 1017.9mb 46f
6:00am 13 15 mph 1017.6mb 47f
5:50am 11 16 mph 1017.6mb 47f
5:40am 14 17 mph 1017.6mb 48f
5:30am 17 20 mph 1017.6mb 50f
5:20am 9 10 mph 1016.9mb 56f
5:10am 6 9 mph 1016.6mb 55f
5:00am 6 8 mph 1016.3mb 55f
4:50am 6 8 mph 1016.3mb 56f
4:40am 8 10 mph 1015.9mb 56f
4:30am 8 10 mph 1016.3mb 54f
4:20am 7 10 mph 1016.3mb 55f
4:10am 6 10 mph 1016.3mb 55f
4:00am 8 11 mph 1016.3mb 55f
3:50am 9 10 mph 1016.3mb 54f
3:40am 9
mph
1016.3mb 53f
3:30am 7 9 mph 1015.9mb 54f
3:20am 6 7 mph 1016.3mb 53f
3:10am 3 6 mph 1015.6mb 54f
3:00am 3 7 mph 1015.6mb 54f
2:50am 6 7 mph 1015.6mb 53f
2:40am 5 7 mph 1015.2mb 52f
2:30am 6 7 mph 1015.6mb 52f
2:20am 5 8 mph 1015.2mb 53f
2:10am 6 8 mph 1015.6mb 52f
2:00am 5 6 mph 1015.6mb 51f
1:50am 3 5 mph 1015.6mb 51f
1:40am 3 5 mph 1015.6mb 50f
1:30am 5 8 mph 1015.6mb 50f
1:20am 3 5 mph 1015.6mb 51f
1:10am 2
mph
1015.2mb 51f
1:00am 2 5 mph 1015.2mb 51f
12:50am 3 5 mph 1015.6mb 51f
12:40am 2 3 mph 1015.6mb 51f
12:30am 2 3 mph 1015.6mb 51f
12:20am 3 6 mph 1015.6mb 50f
12:10am 5 9 mph 1015.9mb 49f
12:00am 5 6 mph 1015.6mb 49f
Fri 04/28 11:50pm 3 6 mph 1015.6mb 48f
11:40pm 3 11 mph 1015.2mb 48f
11:30pm 9 13 mph 1015.2mb 49f
11:20pm 6 8 mph 1015.2mb 52f
11:10pm 8 9 mph 1015.2mb 53f
11:00pm 6 9 mph 1015.6mb 59f
10:50pm 9 13 mph 1015.6mb 57f
10:40pm 10 15 mph 1015.6mb 60f
10:30pm 10 18 mph 1015.6mb 60f
10:20pm 10 18 mph 1015.2mb 59f
10:10pm 9 14 mph 1014.9mb 59f
10:00pm  -  3 mph 1014.9mb 57f
9:50pm  -  7 mph 1015.2mb 55f
9:40pm 7 10 mph 1015.6mb 55f
9:30pm 5 8 mph 1015.6mb 57f
9:20pm 5 7 mph 1015.6mb 57f
9:10pm 3 7 mph 1015.6mb 56f
9:00pm 5 9 mph 1015.9mb 56f
8:50pm 6 11 mph 1015.9mb 56f
8:40pm 5 10 mph 1015.9mb 56f
8:30pm 5 13 mph 1015.9mb 56f
8:20pm 9 14 mph 1016.3mb 56f
8:10pm 9 14 mph 1016.6mb 57f
8:00pm 8 15 mph 1016.3mb 57f
7:50pm 9 14 mph 1016.3mb 57f
7:40pm 8 11 mph 1016.3mb 58f
7:30pm 7 14 mph 1015.9mb 58f
7:20pm 7 15 mph 1016.3mb 58f
7:10pm 7 13 mph 1016.3mb 58f
7:00pm 8 14 mph 1016.3mb 59f
6:50pm 7 10 mph 1016.3mb 60f
6:40pm 7 13 mph 1016.6mb 60f
6:30pm 7 11 mph 1016.3mb 61f
6:20pm 7 9 mph 1016.3mb 62f
6:10pm 6 8 mph 1016.6mb 60f
6:00pm 6 9 mph 1016.6mb 54f
5:50pm 7 9 mph 1016.6mb 54f
5:40pm 8
mph
1016.6mb 53f
5:30pm 8 10 mph 1016.9mb 53f
5:20pm 9 11 mph 1016.9mb -
5:10pm 9 10 mph 1016.9mb -
5:00pm 8 13 mph 1016.9mb -
4:50pm 9 13 mph 1016.9mb -
4:40pm 11 16 mph 1016.6mb -
4:30pm 11 16 mph 1016.6mb -
4:20pm 13 16 mph 1016.6mb -
4:10pm 11 17 mph 1016.3mb 64f
4:00pm 11 21 mph 1016.3mb -
3:50pm 17 24 mph 1015.9mb -
3:40pm 16 21 mph 1015.9mb -
3:30pm 13 21 mph 1015.9mb -
3:20pm 14 21 mph 1015.6mb -
3:10pm 10 20 mph 1015.9mb -
3:00pm 10 20 mph 1015.9mb -
2:50pm 8 18 mph 1016.3mb -
2:40pm 13 20 mph 1015.9mb -
2:30pm 15 24 mph 1016.3mb -
2:20pm 11 20 mph 1016.6mb -
2:10pm 10 14 mph 1016.9mb 52f
2:00pm 9 15 mph 1016.6mb 52f
1:50pm 8 16 mph 1016.6mb 53f
1:40pm 14 16 mph 1016.6mb 51f
1:30pm 10 15 mph 1016.9mb 51f
1:20pm 9 16 mph 1016.9mb 53f
1:10pm 11 17 mph 1016.9mb 57f
1:00pm 5 20 mph 1016.6mb 61f
12:50pm 8 17 mph 1016.6mb 62f
12:40pm 11 17 mph 1016.6mb 61f
12:30pm 11 20 mph 1016.6mb 60f
12:20pm 14 23 mph 1016.6mb 59f
12:10pm 11 18 mph 1016.6mb 59f
12:00pm 16 23 mph 1016.6mb 59f
11:50am 16 23 mph 1016.6mb 59f
11:40am 11 18 mph 1016.9mb 58f
11:30am 15 23 mph 1016.6mb 57f
11:20am 16 21 mph 1016.6mb 57f
11:10am 15 23 mph 1016.3mb 57f
11:00am 11 21 mph 1016.9mb 57f
10:50am 14 20 mph 1016.9mb 56f
10:40am 11 21 mph 1016.9mb 56f
10:30am 8 16 mph 1016.9mb 56f
10:20am 10 18 mph 1016.9mb 55f
10:10am 8 17 mph 1016.9mb 56f
10:00am 10 18 mph 1016.9mb 56f
9:50am 10 20 mph 1017.3mb 55f
9:40am 9 17 mph 1017.3mb 55f
9:30am 8 14 mph 1017.3mb 55f
9:20am 10 18 mph 1017.3mb 55f
9:10am 11 18 mph 1016.9mb 55f
9:00am 11 18 mph 1016.9mb 55f
8:50am 11 20 mph 1016.9mb 54f
8:40am 10 16 mph 1016.9mb 54f
8:30am 8 17 mph 1016.9mb 54f
8:20am 6 14 mph 1016.9mb 54f
8:10am 8 14 mph 1016.9mb 54f
8:00am 8 13 mph 1016.9mb 53f
7:00am 3 9 mph 1016.6mb 51f
6:00am 5 7 mph 1015.2mb 50f
5:50am 3 7 mph 1014.9mb 50f
5:40am 3 7 mph 1014.6mb 50f
5:30am 3 8 mph 1014.6mb 50f
5:20am 6 9 mph 1014.2mb 51f
5:10am 6 10 mph 1014.2mb 51f
5:00am 6 9 mph 1014.2mb 51f
4:50am 6 9 mph 1013.9mb 51f
4:40am 5 9 mph 1013.9mb 50f
4:30am 1 7 mph 1013.9mb 50f
4:20am 5 9 mph 1013.9mb 50f
4:10am 3 9 mph 1013.5mb 50f
4:00am 3 8 mph 1013.5mb 50f
3:50am 6 9 mph 1013.2mb 50f
3:40am 6 8 mph 1013.2mb 50f
3:30am 6 10 mph 1013.2mb 50f
3:20am 3 9 mph 1012.9mb 50f
3:10am 6 9 mph 1012.5mb 51f
3:00am 5 8 mph 1012.5mb 51f
2:50am 3 8 mph 1012.5mb 51f
2:40am 5 8 mph 1012.2mb 51f
2:30am 2 9 mph 1011.9mb 51f
2:20am 5 10 mph 1011.9mb 51f
2:10am 5 10 mph 1011.5mb 51f
2:00am 5 9 mph 1011.2mb 51f
1:50am 5 10 mph 1011.2mb 52f
1:40am 6 10 mph 1011.2mb 52f
1:30am 5 11 mph 1010.8mb 52f
1:20am 5 10 mph 1010.8mb 52f
1:10am 5 10 mph 1010.5mb 52f
1:00am 5 10 mph 1010.5mb 53f
12:50am 6 9 mph 1010.2mb 54f
12:40am 7 15 mph 1010.2mb 55f
12:30am 7 15 mph 1009.8mb 55f
12:20am 7 16 mph 1009.5mb 55f
12:10am 8 14 mph 1009.5mb 55f
12:00am 6 15 mph 1009.1mb 56f
Thu 04/27 11:50pm 10 15 mph 1009.1mb 56f
11:40pm 9 17 mph 1008.8mb 56f
11:30pm 8 15 mph 1008.5mb 56f
11:20pm 10 16 mph 1008.1mb 57f
11:10pm 11 17 mph 1007.8mb 57f
11:00pm 11 17 mph 1007.8mb 58f
10:50pm 13 22 mph 1007.5mb 58f
10:40pm 11 20 mph 1007.1mb 59f
10:30pm 7 16 mph 1007.1mb 60f
10:20pm 9 17 mph 1006.8mb 60f
10:10pm 10 16 mph 1007.1mb 60f
10:00pm 9 15 mph 1007.1mb 60f
9:50pm 11 17 mph 1006.8mb 61f
9:40pm 9 15 mph 1006.4mb 60f
9:30pm 10 13 mph 1006.4mb 60f
9:20pm 6 9 mph 1005.8mb 60f
9:10pm 7 13 mph 1005.4mb 61f
9:00pm 6 13 mph 1005.4mb 62f
8:50pm 7 15 mph 1005.8mb 62f
8:40pm 10 18 mph 1005.8mb 63f
8:30pm 7 15 mph 1005.8mb 64f
8:20pm 9 18 mph 1005.4mb 63f
8:10pm 6 7 mph 1005.4mb 63f
8:00pm 2 8 mph 1005.1mb 64f
7:00pm 7 17 mph 1004.7mb 64f
6:50pm 15 24 mph 1004.1mb 63f
6:40pm 18 26 mph 1003.4mb 62f
6:30pm 20 29 mph 1003.4mb 60f
6:20pm 18 25 mph 1002.7mb 53f
6:10pm 15 21 mph 1002mb 52f
6:00pm 17 24 mph 1002mb 53f
5:50pm 22 29 mph 1001.4mb 51f
5:40pm 7 10 mph 1000.7mb 50f
5:30pm  -  mph 1000.3mb 50f
5:20pm  -  mph 1000mb 50f
5:10pm 1 3 mph 1000mb 50f
5:00pm 2 3 mph 1000mb 50f
4:50pm  -  3 mph 1000.3mb 50f
4:40pm  -  3 mph 1000.3mb 50f
4:30pm 2 6 mph 1000.3mb 50f
4:20pm  -  3 mph 1000.3mb 50f
4:10pm 2 6 mph 1000.7mb 49f
4:00pm 5 8 mph 1000.7mb 49f
3:50pm 2 5 mph 1000.7mb 49f
3:40pm  -  5 mph 1001mb 49f
3:30pm  -  7 mph 1001mb 50f
3:20pm 7 13 mph 1001.4mb 50f
3:10pm 3 7 mph 1001.7mb 49f
3:00pm 3 10 mph 1002mb 48f
2:50pm 9 13 mph 1002mb 48f
2:40pm 11 13 mph 1002mb 47f
2:30pm 9 13 mph 1002mb 47f
2:20pm 9 11 mph 1002.4mb 48f
2:10pm 7 8 mph 1002mb 49f
2:00pm 8 13 mph 1002mb 49f
1:50pm 11 14 mph 1001.7mb 50f
1:40pm 9 13 mph 1001.7mb 49f
1:30pm 7 10 mph 1002mb 48f
1:20pm 8 10 mph 1002.4mb 47f
1:10pm 5 7 mph 1002.7mb 47f
1:00pm 6 9 mph 1003mb 47f
12:50pm 5 8 mph 1003mb 47f
12:40pm 8 11 mph 1003.4mb 47f
12:30pm 10 11 mph 1003mb 47f
12:20pm 8 13 mph 1003.4mb 47f
12:10pm 11 13 mph 1003.4mb 47f
12:00pm 8 10 mph 1003.7mb 47f
11:50am 9 10 mph 1003.7mb 47f
11:40am 9
mph
1004.1mb 47f
11:30am 6 8 mph 1004.4mb 47f
11:20am 7 10 mph 1004.7mb 47f
11:10am 8 10 mph 1004.7mb 47f
11:00am 7 10 mph 1004.7mb 47f
10:50am 7 8 mph 1005.1mb 47f
10:40am 5 8 mph 1005.1mb 47f
10:30am 5 6 mph 1005.1mb 47f
10:20am 5 6 mph 1005.4mb 47f
10:10am 1 5 mph 1005.8mb 47f
10:00am 3 6 mph 1005.8mb 46f
9:50am 2 6 mph 1005.8mb 46f
9:40am 5 7 mph 1005.8mb 47f
9:30am 3 6 mph 1005.8mb 47f
9:20am  -  5 mph 1005.4mb 47f
9:10am 2 5 mph 1005.4mb 47f
9:00am 5 7 mph 1005.4mb 47f
8:50am 6 7 mph 1005.1mb 47f
8:40am 3 6 mph 1005.4mb 47f
8:30am 6 7 mph 1005.1mb 47f
8:20am 5
mph
1005.4mb 47f
8:10am 5 6 mph 1005.1mb 47f
8:00am 5 6 mph 1005.4mb 47f
7:50am 3 6 mph 1005.4mb 47f
7:40am 5
mph
1005.4mb 47f
7:30am 3 5 mph 1005.8mb 47f
7:20am 3 6 mph 1005.8mb 47f
7:10am 6
mph
1005.4mb 46f
7:00am 5 7 mph 1005.4mb 46f
6:50am 7 8 mph 1005.4mb 46f
6:40am 6
mph
1005.4mb 47f
6:30am 3 5 mph 1005.4mb 47f
6:20am 3 6 mph 1005.4mb 47f
6:10am 3 5 mph 1005.4mb 47f
5:00am  -  mph 1005.4mb 47f
4:50am  -  mph 1005.4mb 46f
4:40am  -  mph 1005.4mb 47f
4:30am  -  5 mph 1005.4mb 46f
4:20am 3 5 mph 1005.4mb 46f
4:10am 2 5 mph 1005.4mb 45f
4:00am 2 3 mph 1005.4mb 45f
3:50am 3 5 mph 1005.4mb 45f
3:40am 5 6 mph 1005.4mb 45f
3:30am 3 6 mph 1005.4mb 45f
3:20am 5 6 mph 1005.4mb 45f
3:10am 3 5 mph 1005.4mb 44f
3:00am 3
mph
1005.4mb 45f
2:50am 3 5 mph 1005.4mb 46f
2:40am  -  1 mph 1005.4mb 46f
2:30am  -  mph 1005.4mb 47f
2:20am  -  mph 1005.4mb 47f
2:10am  -  mph 1005.4mb 47f
2:00am  -  mph 1005.4mb 46f
1:50am  -  mph 1005.8mb 47f
1:40am  -  mph 1005.8mb 47f
1:30am  -  mph 1005.8mb 47f
1:20am  -  mph 1006.1mb 47f
1:10am  -  mph 1006.1mb 46f
1:00am  -  mph 1006.1mb 46f
12:50am  -  mph 1006.1mb 46f
12:40am  -  mph 1006.1mb 46f
12:30am  -  mph 1006.1mb 46f
12:20am  -  mph 1006.1mb 46f
12:10am  -  mph 1006.4mb 46f
12:00am  -  mph 1006.4mb 45f
Wed 04/26 11:50pm  -  mph 1006.4mb 45f
11:40pm  -  mph 1006.4mb 45f
11:30pm  -  mph 1006.4mb 45f
11:20pm  -  mph 1006.4mb 45f
11:10pm  -  mph 1006.4mb 45f
11:00pm  -  mph 1006.4mb 44f
10:50pm  -  mph 1006.4mb 44f
10:40pm  -  mph 1006.4mb 44f
10:30pm  -  5 mph 1006.4mb 44f
10:20pm 5 6 mph 1006.4mb 45f
10:10pm  -  3 mph 1006.4mb 46f
10:00pm 1 3 mph 1006.4mb 46f
9:50pm  -  2 mph 1006.4mb 45f
9:40pm 2 7 mph 1006.1mb 45f
9:30pm 7 9 mph 1006.1mb 44f
9:20pm 8 9 mph 1006.1mb 44f
9:10pm 7 9 mph 1006.1mb 45f
9:00pm 7 9 mph 1005.8mb 45f
8:50pm 9 11 mph 1005.8mb 45f
8:40pm 10 11 mph 1005.8mb 45f
8:30pm 9 10 mph 1005.8mb 45f
8:20pm 8 9 mph 1005.8mb 45f
8:10pm 8 9 mph 1005.8mb 44f
8:00pm 6 8 mph 1005.8mb 44f
7:00pm 5 8 mph 1006.1mb 44f
6:50pm 6 8 mph 1006.4mb 44f
6:40pm 7 9 mph 1006.4mb 45f
6:30pm 8 10 mph 1006.1mb 45f
6:20pm 9 11 mph 1006.4mb 45f
6:10pm 10 11 mph 1006.1mb 45f
6:00pm 10 13 mph 1006.1mb 46f
5:50pm 11 13 mph 1006.1mb 46f
5:40pm 11 15 mph 1006.4mb 46f
5:30pm 10 14 mph 1006.4mb 46f
5:20pm 14 17 mph 1006.4mb 46f
5:10pm 16 18 mph 1006.1mb 46f
5:00pm 17 18 mph 1006.1mb 46f
4:50pm 16 20 mph 1006.1mb 46f
4:40pm 17 20 mph 1006.1mb 46f
4:30pm 18 20 mph 1006.4mb 46f
4:20pm 16 18 mph 1006.4mb 46f
4:10pm 16 18 mph 1006.4mb 46f
4:00pm 15 20 mph 1006.8mb 46f
3:50pm 18 21 mph 1006.8mb 46f
3:40pm 17 20 mph 1006.8mb 46f
3:30pm 16 20 mph 1006.8mb 46f
3:20pm 17 20 mph 1006.8mb 46f
3:10pm 15 17 mph 1007.5mb 46f
3:00pm 15 18 mph 1007.5mb 46f
2:50pm 16 18 mph 1007.5mb 47f
2:40pm 16 17 mph 1007.5mb 46f
2:30pm 16 18 mph 1007.5mb 46f
2:20pm 16 18 mph 1007.5mb 46f
2:10pm 15 17 mph 1007.8mb 45f
2:00pm 14 16 mph 1008.5mb 45f
1:50pm 13 14 mph 1008.5mb 45f
1:40pm 8 10 mph 1008.8mb 45f
1:30pm 7 11 mph 1008.8mb 45f
1:20pm 10 11 mph 1009.1mb 45f
1:10pm 8 9 mph 1009.1mb 45f
1:00pm 7 8 mph 1009.5mb 45f
12:50pm 7 8 mph 1009.5mb 45f
12:40pm 6 8 mph 1009.5mb 45f
12:30pm 7 10 mph 1009.5mb 45f
12:20pm 8 10 mph 1009.5mb 45f
12:10pm 9 13 mph 1009.8mb 45f
12:00pm 10 13 mph 1009.5mb 45f
11:50am 10 13 mph 1009.8mb 45f
11:40am 10 13 mph 1009.8mb 45f
11:30am 10 13 mph 1009.8mb 45f
11:20am 10 11 mph 1010.2mb 45f
11:10am 7 9 mph 1010.2mb 45f
11:00am 8 9 mph 1010.2mb 45f
10:50am 6 8 mph 1010.2mb 46f
10:40am 5 9 mph 1010.2mb 45f
10:30am 7 8 mph 1010.2mb 45f
10:20am 6 8 mph 1010.5mb 45f
10:10am 7 8 mph 1010.5mb 45f
10:00am 6 10 mph 1010.2mb 45f
9:50am 6 7 mph 1010.2mb 46f
9:40am 5 6 mph 1010.2mb 47f
9:30am 2 5 mph 1010.2mb 46f
9:20am 3 5 mph 1010.2mb 46f
9:10am 3 5 mph 1010.2mb 46f
9:00am 3 5 mph 1010.5mb 46f
8:50am 3 5 mph 1010.5mb 46f
8:40am 5 6 mph 1010.2mb 46f
8:30am 3 5 mph 1010.5mb 46f
8:20am 5 6 mph 1010.2mb 46f
8:10am 6 7 mph 1010.2mb 46f
8:00am 5 6 mph 1010.2mb 47f
7:50am 5 7 mph 1010.2mb 47f
7:40am 5 9 mph 1010.2mb 46f
7:30am 8
mph
1010.2mb 46f
7:20am 7 9 mph 1010.2mb 47f
7:10am 5 9 mph 1010.2mb 47f
7:00am 8 9 mph 1010.2mb 47f
6:50am 8 11 mph 1009.8mb 47f
6:40am 9 10 mph 1009.8mb 48f
6:30am 9 10 mph 1009.8mb 48f
6:20am 7 9 mph 1009.8mb 47f
6:10am 7 9 mph 1009.8mb 47f
6:00am 6 9 mph 1009.8mb 47f
5:50am 3 5 mph 1010.2mb 53f
5:40am  -  3 mph 1010.2mb 53f
5:30am  -  5 mph 1009.8mb 53f
5:20am  -  3 mph 1009.8mb 53f
5:10am  -  8 mph 1009.8mb 53f
5:00am 3 8 mph 1009.8mb 54f
4:50am 5 8 mph 1009.8mb 54f
4:40am 5 9 mph 1009.8mb 53f
4:30am 6 10 mph 1009.8mb 54f
4:20am 3 10 mph 1009.8mb 53f
4:10am 7 11 mph 1009.8mb 53f
4:00am 6 9 mph 1009.8mb 53f
3:50am 6 9 mph 1009.8mb 53f
3:40am 5 8 mph 1009.8mb 53f
3:30am 6 8 mph 1009.8mb 54f
3:20am 7 10 mph 1009.8mb 54f
3:10am 5 10 mph 1009.8mb 54f
3:00am 6 11 mph 1010.2mb 54f
2:50am 6 9 mph 1010.2mb 54f
2:40am 3 10 mph 1010.2mb 54f
2:30am 6 9 mph 1010.2mb 52f
2:20am 8 9 mph 1010.2mb 50f
2:10am 8 9 mph 1010.2mb 51f
2:00am 6 9 mph 1010.5mb 51f
1:50am 7 9 mph 1010.8mb 49f
1:40am 8 10 mph 1010.8mb 48f
1:30am 8 9 mph 1010.8mb 47f
1:20am 8 10 mph 1010.8mb 46f
1:10am 8 10 mph 1010.8mb 46f
1:00am 7 8 mph 1010.8mb 46f
12:50am 5 8 mph 1011.2mb 46f
12:40am 7 8 mph 1011.2mb 46f
12:30am 6 7 mph 1011.2mb 47f
12:20am 6 7 mph 1011.2mb 47f
12:10am 5 8 mph 1011.2mb 47f
12:00am 5 8 mph 1011.2mb 47f
Tue 04/25 11:50pm 6 8 mph 1011.2mb 47f
11:40pm 6 9 mph 1011.2mb 47f
11:30pm 6 8 mph 1010.8mb 47f
11:20pm 6 8 mph 1011.2mb 50f
11:10pm 5 8 mph 1011.2mb 51f
11:00pm 6 8 mph 1011.2mb 50f
10:50pm 7 8 mph 1011.5mb 49f
10:40pm 6 8 mph 1011.5mb 51f
10:30pm 6 7 mph 1011.5mb 50f
10:20pm 6 8 mph 1011.5mb 49f
10:10pm 6 9 mph 1011.9mb 48f
10:00pm 7 10 mph 1011.9mb 48f
9:50pm 8 9 mph 1011.9mb 47f
9:40pm 8 10 mph 1011.9mb 47f
9:30pm 9 11 mph 1011.9mb 47f
9:20pm 10
mph
1011.9mb 47f
9:10pm 8 9 mph 1011.9mb 50f
9:00pm 9 11 mph 1011.9mb 55f
8:50pm 10 15 mph 1011.9mb 56f
8:40pm 10 15 mph 1011.9mb 56f
8:30pm 10 14 mph 1011.9mb 56f
8:20pm 7 13 mph 1011.9mb 54f
8:10pm 9 13 mph 1011.9mb 52f
8:00pm 8 10 mph 1011.9mb 54f
7:50pm 7 11 mph 1011.9mb 49f
7:40pm 9 10 mph 1011.9mb 47f
7:30pm 8 13 mph 1011.9mb 45f
7:20pm 11 16 mph 1011.9mb 45f
7:10pm 15 17 mph 1011.5mb 47f
7:00pm 9 14 mph 1011.9mb 55f
6:50pm 11 13 mph 1011.5mb 53f
6:40pm 13 16 mph 1011.5mb 48f
6:30pm 16 17 mph 1011.5mb 46f
6:20pm 15 18 mph 1011.9mb 46f
6:10pm 17 18 mph 1011.9mb 45f
6:00pm 17 18 mph 1011.9mb 45f
5:50pm 17 20 mph 1012.2mb 45f
5:40pm 16 20 mph 1012.2mb 45f
5:30pm 17 18 mph 1012.5mb 45f
5:20pm 18 20 mph 1012.5mb 45f
5:10pm 18 21 mph 1012.5mb 44f
5:00pm 18 21 mph 1012.9mb 44f
4:50pm 17 21 mph 1013.2mb 45f
4:40pm 18 23 mph 1013.2mb 45f
4:30pm 21 22 mph 1013.2mb 45f
4:20pm 18 22 mph 1013.2mb 45f
4:10pm 21 23 mph 1013.2mb 44f
4:00pm 21 23 mph 1013.2mb 44f
3:50pm 20 21 mph 1013.5mb 45f
3:40pm 18 22 mph 1013.5mb 46f
3:30pm 21 23 mph 1013.5mb 45f
3:20pm 20 22 mph 1013.9mb 45f
3:10pm 18 21 mph 1014.2mb 45f
3:00pm 20 22 mph 1014.2mb 45f
2:50pm 20 22 mph 1013.9mb 45f
2:40pm 20 21 mph 1013.9mb 45f
2:30pm 18 22 mph 1014.2mb 44f
2:20pm 20 21 mph 1014.2mb 45f
2:10pm 18 21 mph 1014.2mb 45f
2:00pm 18 20 mph 1014.6mb 45f
1:50pm 17 21 mph 1014.6mb 46f